Austin, Texas
Current Conditions -  °F | °C
As of 7:51 PM on Saturday 25 Oct 2014 (Local Time) from KATT Reporting Station
Clear Clear  
Wind Chill: 79°   Ceiling: Unl
Heat Index: 80°   Visibility: 10mi
Dew Point: 59°   Wind: 5mph
Humidity: 50%   Direction: 130°SE
Pressure: 30.09"   Gusts: NA
Location:  30.27°N, 97.74°W
Report Text: KATT 260051Z AUTO 13004KT 10SM CLR 26/15 A3009 RMK AO2 SLP181 T02610150
Loading
Personal Weather Stations






























Interactive Weather Map
Tropical Storm Tracking
New forecast layout! Learn more

10-Day Weather Forecast

Advertisements
Track Severe Weather on mobile